Fort Walton Beach, FL

7:07 AM CDT on August 05, 2015 (GMT -0500)
Choctawhatchee High School WeatherSTEM | | Change Station
CLOSE
Current Station
Personal Weather Station
Location: Fort Walton Beach, FL
Elevation: 52 ft
Nearby Weather Stations

Elev 52 ft 30.45 °N, 86.62 °W | Updated 9 minutes ago

Clear
Clear
79.6 °F
Feels Like 85 °F
N
1.0
Wind Variable Wind from NNW
Gusts 2.0 mph

Today
High -- | Low -- °F
--% Chance of Precip.
Yesterday
High -- | Low -- °F
Precip. -- in
6:07 AM 7:37 PM
Waning Gibbous, 68% visible
Pressure 30.04 in
Visibility 10.0 miles
Clouds Scattered Clouds 9500 ft
Heat Index 85 °F
Dew Point 77 °F
Humidity 91%
Rainfall 0.00 in
Snow Depth Not available.
UV 0.0 out of 12
Pollen 3.70 out of 12
Air Quality Not available.
Flu Activity Not available.
METAR KHRT 051158Z AUTO 00000KT 10SM SCT095 28/24 A3003 RMK AO2 SLP171 T02760241 10292 20272 52008 $

More Conditions Fewer Conditions

Pressure 30.04 in
Visibility 10.0 miles
Clouds Scattered Clouds 9500 ft
Heat Index 85 °F
Dew Point 77 °F
Humidity 91%
Rainfall 0.00 in
Snow Depth Not available.
UV 0.0 out of 12
Pollen 3.70 out of 12
Air Quality Not available.
Flu Activity Not available.
METAR KHRT 051158Z AUTO 00000KT 10SM SCT095 28/24 A3003 RMK AO2 SLP171 T02760241 10292 20272 52008 $

More Conditions Fewer Conditions

10-Day Weather Forecast

×

Almanac

Astronomy

Aug. 05, 2015 Rise Set
Actual Time
Civil Twilight
Nautical Twilight
Astronomical Twilight
Moon
Length of Visible Light
Length of Day
Tomorrow will be .
, % of the Moon is Illuminated

Today's Extremes

State Highs State Lows

Community

WunderPhotos

Upload Photos

1,844,157 photos uploaded!

WunderBlogs® & News

Nearby

Air Quality

  Air Quality AQ Index Pollutant
Not available.

Snow Depth

Station Depth Elevation

Earthquake Activity

City Distance Mag. Time & Date
Minimum magnitude displayed is 2.5.

Coastal Water Temperatures

Place Temperature

Stations

Nearby Weather Stations

Station Location Temp. Windchill Dew Point Humidity Wind Precip. Elev Updated Type